createdAt,value
2023-01-18T00:00:40.451Z,9.07
2023-01-18T00:03:11.206Z,9.60
2023-01-18T00:05:41.154Z,11.05
2023-01-18T00:08:12.399Z,9.73
2023-01-18T00:10:39.311Z,12.10
2023-01-18T00:13:06.770Z,7.63
2023-01-18T00:15:34.324Z,9.63
2023-01-18T00:18:01.285Z,7.82
2023-01-18T00:20:29.564Z,6.10
2023-01-18T00:22:56.507Z,7.45
2023-01-18T00:25:24.601Z,8.98
2023-01-18T00:27:53.837Z,7.65
2023-01-18T00:30:23.476Z,12.90
2023-01-18T00:32:53.673Z,8.32
2023-01-18T00:35:22.305Z,7.13
2023-01-18T00:37:49.701Z,11.07
2023-01-18T00:43:01.798Z,10.82
2023-01-18T00:45:28.646Z,14.98
2023-01-18T00:47:55.419Z,11.35
2023-01-18T00:50:22.535Z,11.38
2023-01-18T00:52:50.169Z,12.57
2023-01-18T00:55:17.699Z,10.10
2023-01-18T00:57:44.324Z,10.32
2023-01-18T01:00:15.348Z,8.35
2023-01-18T01:02:42.055Z,10.35
2023-01-18T01:05:46.913Z,6.40
2023-01-18T01:08:18.181Z,6.75
2023-01-18T01:10:47.159Z,13.02
2023-01-18T01:13:34.772Z,12.70
2023-01-18T01:16:24.737Z,11.10
2023-01-18T01:19:10.321Z,11.18
2023-01-18T01:21:55.839Z,10.77
2023-01-18T01:24:40.941Z,10.38
2023-01-18T01:27:07.731Z,5.82
2023-01-18T01:29:34.243Z,9.05
2023-01-18T01:32:00.787Z,5.37
2023-01-18T01:34:27.316Z,7.25
2023-01-18T01:36:53.870Z,9.50
2023-01-18T01:39:20.401Z,6.63
2023-01-18T01:41:47.078Z,10.47
2023-01-18T01:44:30.738Z,12.23
2023-01-18T01:47:02.859Z,10.50
2023-01-18T01:49:52.354Z,8.23
2023-01-18T01:52:27.272Z,11.45
2023-01-18T01:55:02.497Z,8.43
2023-01-18T01:57:34.727Z,9.25
2023-01-18T02:00:07.862Z,11.52
2023-01-18T02:02:35.792Z,7.70
2023-01-18T02:05:06.147Z,11.23
2023-01-18T02:07:33.836Z,14.02
2023-01-18T02:10:01.937Z,11.95
2023-01-18T02:12:29.422Z,9.30
2023-01-18T02:14:58.477Z,6.15
2023-01-18T02:17:43.426Z,10.73
2023-01-18T02:20:31.079Z,8.75
2023-01-18T02:23:15.472Z,10.18
2023-01-18T02:26:12.812Z,10.82
2023-01-18T02:28:42.252Z,9.98
2023-01-18T02:31:21.424Z,7.72
2023-01-18T02:34:21.668Z,15.75
2023-01-18T02:37:07.315Z,7.00
2023-01-18T02:39:48.199Z,9.75
2023-01-18T02:42:37.657Z,7.00
2023-01-18T02:45:34.300Z,9.45
2023-01-18T02:48:03.088Z,15.27
2023-01-18T02:52:56.511Z,11.40
2023-01-18T02:56:01.232Z,8.63
2023-01-18T02:58:53.877Z,12.15
2023-01-18T03:01:30.347Z,7.72
2023-01-18T03:04:04.379Z,8.70
2023-01-18T03:06:31.666Z,10.55
2023-01-18T03:08:59.291Z,9.00
2023-01-18T03:11:37.910Z,11.60
2023-01-18T03:14:42.577Z,9.98
2023-01-18T03:17:29.582Z,11.57
2023-01-18T03:22:58.656Z,10.65
2023-01-18T03:25:34.718Z,7.05
2023-01-18T03:28:24.963Z,9.00
2023-01-18T03:31:12.404Z,10.35
2023-01-18T03:33:45.923Z,7.10
2023-01-18T03:36:41.447Z,8.75
2023-01-18T03:39:13.172Z,10.43
2023-01-18T03:41:45.521Z,11.73
2023-01-18T03:44:19.099Z,9.68
2023-01-18T03:46:46.271Z,11.98
2023-01-18T03:49:13.646Z,13.18
2023-01-18T03:55:05.179Z,11.05
2023-01-18T03:57:45.143Z,8.15
2023-01-18T04:00:13.821Z,11.48
2023-01-18T04:02:42.974Z,7.22
2023-01-18T04:05:10.593Z,11.95
2023-01-18T04:07:37.165Z,9.95
2023-01-18T04:10:04.063Z,13.40
2023-01-18T04:12:31.563Z,13.73
2023-01-18T04:14:58.209Z,17.98
2023-01-18T04:17:24.831Z,8.98
2023-01-18T04:19:51.466Z,11.00
2023-01-18T04:22:18.061Z,7.60
2023-01-18T04:24:44.768Z,12.30
2023-01-18T04:27:11.868Z,12.02
2023-01-18T04:29:38.746Z,10.65
2023-01-18T04:32:05.602Z,10.25
2023-01-18T04:34:33.382Z,15.30
2023-01-18T04:37:00.326Z,13.90
2023-01-18T04:39:27.060Z,8.45
2023-01-18T04:41:53.989Z,8.63
2023-01-18T04:44:21.471Z,5.80
2023-01-18T04:46:49.097Z,12.75
2023-01-18T04:49:17.465Z,10.25
2023-01-18T04:51:46.124Z,10.57
2023-01-18T04:54:15.879Z,15.00
2023-01-18T04:56:42.481Z,8.65
2023-01-18T04:59:14.941Z,7.75
2023-01-18T05:01:41.649Z,9.18
2023-01-18T05:04:08.304Z,11.35
2023-01-18T05:06:34.841Z,9.30
2023-01-18T05:09:01.396Z,8.00
2023-01-18T05:11:27.956Z,14.23
2023-01-18T05:13:54.552Z,7.70
2023-01-18T05:16:23.437Z,11.82
2023-01-18T05:18:50.279Z,8.13
2023-01-18T05:21:17.181Z,12.18
2023-01-18T05:23:43.829Z,9.32
2023-01-18T05:26:17.861Z,13.82
2023-01-18T05:28:45.422Z,8.30
2023-01-18T05:31:13.241Z,9.40
2023-01-18T05:33:39.828Z,8.93
2023-01-18T05:36:07.146Z,13.90
2023-01-18T05:41:00.473Z,11.52
2023-01-18T05:43:28.948Z,9.55
2023-01-18T05:45:56.137Z,10.50
2023-01-18T05:48:23.216Z,8.27
2023-01-18T05:50:50.161Z,7.93
2023-01-18T05:53:19.854Z,11.05
2023-01-18T05:55:57.763Z,9.27
2023-01-18T05:58:25.422Z,11.10
2023-01-18T06:00:52.415Z,17.48
2023-01-18T06:03:19.012Z,13.43
2023-01-18T06:05:46.780Z,9.80
2023-01-18T06:08:13.376Z,15.27
2023-01-18T06:10:40.012Z,7.60
2023-01-18T06:13:06.869Z,10.80
2023-01-18T06:15:33.818Z,12.25
2023-01-18T06:18:00.533Z,9.30
2023-01-18T06:20:30.471Z,12.85
2023-01-18T06:22:58.422Z,10.10
2023-01-18T06:25:25.441Z,12.50
2023-01-18T06:27:52.150Z,11.63
2023-01-18T06:30:19.615Z,8.98
2023-01-18T06:32:47.174Z,6.43
2023-01-18T06:35:13.741Z,9.63
2023-01-18T06:37:40.334Z,9.20
2023-01-18T06:40:07.675Z,12.00
2023-01-18T06:42:34.237Z,9.82
2023-01-18T06:45:00.794Z,10.63
2023-01-18T06:47:27.323Z,9.50
2023-01-18T06:49:53.889Z,11.23
2023-01-18T06:52:20.472Z,17.02
2023-01-18T06:54:47.004Z,8.82
2023-01-18T06:57:13.867Z,10.40
2023-01-18T06:59:40.548Z,9.80
2023-01-18T07:02:07.628Z,11.05
2023-01-18T07:04:37.902Z,15.32
2023-01-18T07:07:04.496Z,12.60
2023-01-18T07:09:31.150Z,10.83
2023-01-18T07:11:57.662Z,12.25
2023-01-18T07:14:24.244Z,12.37
2023-01-18T07:16:50.959Z,13.40
2023-01-18T07:19:17.507Z,11.23
2023-01-18T07:21:44.684Z,10.60
2023-01-18T07:24:11.584Z,10.23
2023-01-18T07:26:38.179Z,13.60
2023-01-18T07:29:04.764Z,15.20
2023-01-18T07:31:31.940Z,11.10
2023-01-18T07:33:58.528Z,16.20
2023-01-18T07:36:25.088Z,16.43
2023-01-18T07:38:52.339Z,18.80
2023-01-18T07:41:19.183Z,16.42
2023-01-18T07:43:46.042Z,19.52
2023-01-18T07:46:16.543Z,11.23
2023-01-18T07:48:44.644Z,15.95
2023-01-18T07:51:11.617Z,10.38
2023-01-18T07:53:38.625Z,17.15
2023-01-18T07:56:12.053Z,14.30
2023-01-18T07:58:38.661Z,12.00
2023-01-18T08:01:14.451Z,14.18
2023-01-18T08:03:42.953Z,12.70
2023-01-18T08:06:10.261Z,9.63
2023-01-18T08:08:37.131Z,13.73
2023-01-18T08:11:06.019Z,10.65
2023-01-18T08:13:32.844Z,15.65
2023-01-18T08:16:01.306Z,11.82
2023-01-18T08:18:28.263Z,11.85
2023-01-18T08:20:55.317Z,12.05
2023-01-18T08:23:22.354Z,9.00
2023-01-18T08:25:49.706Z,9.68
2023-01-18T08:30:45.605Z,12.13
2023-01-18T08:33:12.851Z,7.50
2023-01-18T08:35:45.652Z,10.13
2023-01-18T08:38:14.226Z,9.95
2023-01-18T08:40:40.810Z,11.60
2023-01-18T08:43:07.869Z,9.20
2023-01-18T08:45:35.105Z,13.23
2023-01-18T08:48:04.447Z,8.05
2023-01-18T08:50:31.999Z,11.50
2023-01-18T08:53:00.307Z,9.98
2023-01-18T08:55:29.683Z,17.50
2023-01-18T08:57:59.433Z,15.20
2023-01-18T09:00:30.613Z,18.35
2023-01-18T09:02:58.612Z,11.88
2023-01-18T09:05:27.131Z,16.25
2023-01-18T09:07:55.384Z,16.17
2023-01-18T09:10:23.270Z,10.80
2023-01-18T09:12:51.591Z,10.63
2023-01-18T09:15:19.436Z,13.05
2023-01-18T09:17:46.353Z,15.25
2023-01-18T09:20:13.195Z,17.73
2023-01-18T09:22:39.811Z,10.10
2023-01-18T09:25:06.898Z,11.18
2023-01-18T09:27:33.719Z,11.35
2023-01-18T09:30:00.337Z,11.48
2023-01-18T09:32:27.577Z,9.93
2023-01-18T09:34:54.850Z,10.52
2023-01-18T09:39:52.168Z,12.55
2023-01-18T09:42:27.440Z,12.45
2023-01-18T09:45:01.244Z,6.45
2023-01-18T09:47:34.250Z,15.38
2023-01-18T09:50:13.293Z,8.32
2023-01-18T09:52:43.285Z,10.38
2023-01-18T09:55:33.907Z,9.38
2023-01-18T09:58:06.218Z,7.40
2023-01-18T10:00:37.244Z,11.68
2023-01-18T10:03:28.881Z,11.82
2023-01-18T10:06:09.657Z,11.10
2023-01-18T10:08:42.193Z,9.32
2023-01-18T10:11:20.031Z,7.53
2023-01-18T10:14:05.467Z,12.30
2023-01-18T10:16:34.693Z,21.10
2023-01-18T10:19:02.152Z,10.80
2023-01-18T10:24:29.076Z,12.10
2023-01-18T10:27:18.604Z,12.32
2023-01-18T10:30:25.824Z,13.35
2023-01-18T10:32:57.157Z,12.18
2023-01-18T10:35:48.094Z,13.30
2023-01-18T10:38:19.436Z,14.63
2023-01-18T10:40:58.047Z,17.38
2023-01-18T10:43:26.765Z,8.23
2023-01-18T10:45:53.787Z,12.57
2023-01-18T10:48:25.415Z,16.42
2023-01-18T10:50:55.609Z,10.45
2023-01-18T10:53:32.194Z,13.57
2023-01-18T10:56:28.540Z,15.25
2023-01-18T10:58:58.515Z,13.63
2023-01-18T11:01:29.272Z,10.27
2023-01-18T11:04:16.786Z,18.58
2023-01-18T11:06:53.560Z,14.50
2023-01-18T11:09:54.492Z,12.68
2023-01-18T11:12:39.015Z,9.10
2023-01-18T11:15:16.182Z,16.08
2023-01-18T11:20:29.824Z,10.88
2023-01-18T11:23:14.304Z,17.60
2023-01-18T11:26:01.423Z,17.60
2023-01-18T11:28:37.351Z,18.38
2023-01-18T11:31:13.781Z,11.45
2023-01-18T11:33:58.316Z,17.15
2023-01-18T11:36:37.039Z,17.10
2023-01-18T11:39:21.595Z,11.95
2023-01-18T11:41:51.143Z,17.20
2023-01-18T11:44:26.751Z,15.70
2023-01-18T11:46:58.015Z,17.70
2023-01-18T11:49:37.853Z,20.38
2023-01-18T11:52:10.587Z,24.05
2023-01-18T11:54:43.602Z,21.42
2023-01-18T11:57:12.904Z,22.73
2023-01-18T11:59:42.933Z,26.85
2023-01-18T12:03:06.768Z,31.77
2023-01-18T12:05:54.799Z,19.27
2023-01-18T12:08:40.587Z,22.02
2023-01-18T12:11:09.823Z,20.27
2023-01-18T12:13:43.476Z,21.10
2023-01-18T12:16:21.944Z,23.00
2023-01-18T12:18:58.904Z,21.75
2023-01-18T12:22:03.851Z,29.88
2023-01-18T12:24:33.972Z,25.35
2023-01-18T12:27:19.212Z,24.95
2023-01-18T12:30:05.260Z,23.75
2023-01-18T12:32:40.635Z,24.35
2023-01-18T12:35:24.012Z,22.83
2023-01-18T12:38:08.371Z,28.27
2023-01-18T12:41:11.150Z,31.95
2023-01-18T12:44:05.254Z,31.67
2023-01-18T12:46:42.016Z,35.08
2023-01-18T12:49:18.644Z,30.80
2023-01-18T12:51:49.014Z,42.75
2023-01-18T12:54:21.607Z,34.35
2023-01-18T12:56:52.664Z,44.67
2023-01-18T12:59:20.668Z,35.55
2023-01-18T13:01:56.180Z,27.20
2023-01-18T13:04:55.367Z,36.97
2023-01-18T13:07:31.324Z,33.17
2023-01-18T13:09:58.445Z,50.17
2023-01-18T13:12:26.055Z,28.40
2023-01-18T13:15:01.780Z,33.67
2023-01-18T13:17:42.572Z,39.25
2023-01-18T13:20:11.824Z,48.22
2023-01-18T13:22:59.835Z,47.35
2023-01-18T13:25:32.188Z,38.15
2023-01-18T13:28:01.971Z,36.03
2023-01-18T13:30:48.573Z,36.30
2023-01-18T13:33:17.051Z,39.78
2023-01-18T13:35:53.177Z,48.22
2023-01-18T13:38:33.018Z,33.42
2023-01-18T13:41:10.636Z,33.78
2023-01-18T13:43:37.198Z,45.00
2023-01-18T13:46:06.669Z,43.57
2023-01-18T13:48:54.440Z,45.15
2023-01-18T13:51:42.722Z,39.03
2023-01-18T13:54:29.507Z,38.10
2023-01-18T13:57:01.966Z,38.35
2023-01-18T13:59:37.240Z,35.78
2023-01-18T14:02:13.270Z,47.42
2023-01-18T14:04:39.964Z,51.72
2023-01-18T14:07:07.970Z,45.65
2023-01-18T14:09:45.444Z,51.55
2023-01-18T14:12:13.032Z,40.92
2023-01-18T14:14:53.433Z,39.55
2023-01-18T14:17:20.370Z,38.92
2023-01-18T14:19:50.164Z,50.47
2023-01-18T14:22:47.675Z,51.63
2023-01-18T14:25:38.948Z,48.13
2023-01-18T14:28:13.709Z,46.03
2023-01-18T14:30:41.837Z,49.15
2023-01-18T14:33:11.293Z,53.42
2023-01-18T14:35:38.986Z,50.17
2023-01-18T14:38:18.687Z,44.03
2023-01-18T14:40:51.449Z,50.90
2023-01-18T14:43:42.263Z,38.75
2023-01-18T14:46:15.940Z,49.67
2023-01-18T14:48:51.556Z,46.50
2023-01-18T14:51:23.084Z,56.75
2023-01-18T14:53:54.817Z,57.63
2023-01-18T14:56:29.549Z,48.55
2023-01-18T14:58:56.089Z,59.63
2023-01-18T15:01:38.171Z,62.30
2023-01-18T15:04:21.953Z,51.90
2023-01-18T15:06:57.174Z,53.08
2023-01-18T15:09:28.083Z,63.17
2023-01-18T15:12:01.253Z,49.47
2023-01-18T15:14:36.591Z,68.97
2023-01-18T15:17:08.745Z,58.80
2023-01-18T15:19:46.961Z,62.50
2023-01-18T15:22:16.964Z,60.63
2023-01-18T15:24:45.420Z,62.67
2023-01-18T15:27:17.682Z,64.40
2023-01-18T15:29:50.379Z,63.97
2023-01-18T15:32:25.043Z,73.47
2023-01-18T15:34:54.741Z,61.83
2023-01-18T15:37:25.608Z,75.15
2023-01-18T15:40:22.720Z,57.10
2023-01-18T15:42:57.854Z,59.15
2023-01-18T15:45:29.278Z,67.88
2023-01-18T15:48:09.920Z,67.25
2023-01-18T15:50:43.546Z,61.30
2023-01-18T15:53:22.867Z,65.28
2023-01-18T15:55:58.473Z,59.60
2023-01-18T15:58:42.973Z,64.22
2023-01-18T16:01:12.918Z,64.75
2023-01-18T16:03:48.192Z,74.20
2023-01-18T16:06:19.098Z,68.78
2023-01-18T16:09:12.871Z,66.70
2023-01-18T16:12:07.671Z,64.97
2023-01-18T16:14:35.728Z,76.22
2023-01-18T16:17:06.475Z,76.65
2023-01-18T16:19:40.937Z,60.40
2023-01-18T16:22:19.647Z,52.92
2023-01-18T16:24:50.808Z,78.57
2023-01-18T16:27:20.652Z,80.47
2023-01-18T16:29:50.158Z,73.88
2023-01-18T16:32:22.577Z,87.78
2023-01-18T16:34:49.534Z,83.20
2023-01-18T16:37:18.149Z,76.75
2023-01-18T16:39:45.057Z,76.50
2023-01-18T16:42:12.287Z,87.55
2023-01-18T16:44:42.763Z,65.00
2023-01-18T16:47:11.106Z,77.40
2023-01-18T16:49:41.097Z,67.47
2023-01-18T16:52:12.643Z,70.63
2023-01-18T16:54:48.376Z,76.75
2023-01-18T16:57:17.867Z,78.25
2023-01-18T16:59:44.391Z,91.28
2023-01-18T17:02:11.479Z,82.83
2023-01-18T17:04:38.315Z,62.95
2023-01-18T17:07:06.760Z,78.55
2023-01-18T17:09:47.283Z,70.95
2023-01-18T17:12:14.758Z,56.53
2023-01-18T17:14:41.333Z,86.63
2023-01-18T17:17:09.709Z,74.43
2023-01-18T17:19:37.898Z,80.18
2023-01-18T17:22:05.064Z,78.45
2023-01-18T17:24:31.805Z,76.03
2023-01-18T17:26:58.396Z,61.00
2023-01-18T17:29:25.025Z,64.25
2023-01-18T17:31:52.997Z,60.85
2023-01-18T17:34:27.471Z,76.78
2023-01-18T17:36:59.249Z,66.37
2023-01-18T17:39:37.018Z,65.45
2023-01-18T17:42:18.744Z,78.40
2023-01-18T17:44:49.231Z,80.45
2023-01-18T17:47:16.521Z,74.55
2023-01-18T17:49:43.071Z,74.78
2023-01-18T17:52:09.686Z,61.75
2023-01-18T17:54:36.257Z,85.43
2023-01-18T17:57:03.044Z,77.88
2023-01-18T17:59:29.724Z,75.85
2023-01-18T18:01:56.298Z,83.28
2023-01-18T18:04:22.878Z,79.63
2023-01-18T18:06:54.403Z,83.20
2023-01-18T18:09:21.331Z,66.00
2023-01-18T18:11:48.035Z,70.18
2023-01-18T18:14:14.754Z,77.95
2023-01-18T18:16:43.814Z,87.03
2023-01-18T18:19:14.566Z,80.50
2023-01-18T18:21:45.337Z,69.68
2023-01-18T18:24:11.969Z,64.20
2023-01-18T18:26:38.626Z,82.00
2023-01-18T18:29:05.237Z,70.35
2023-01-18T18:31:31.861Z,59.25
2023-01-18T18:33:58.475Z,66.32
2023-01-18T18:36:27.389Z,65.30
2023-01-18T18:38:54.197Z,71.47
2023-01-18T18:41:20.796Z,70.77
2023-01-18T18:43:47.379Z,86.90
2023-01-18T18:46:14.444Z,54.67
2023-01-18T18:48:41.043Z,62.78
2023-01-18T18:51:07.629Z,86.47
2023-01-18T18:53:38.569Z,72.17
2023-01-18T18:56:09.498Z,68.65
2023-01-18T18:58:39.309Z,67.20
2023-01-18T19:01:07.702Z,60.75
2023-01-18T19:03:35.436Z,67.72
2023-01-18T19:06:02.161Z,68.13
2023-01-18T19:08:28.768Z,56.47
2023-01-18T19:10:57.248Z,62.90
2023-01-18T19:13:23.869Z,59.80
2023-01-18T19:15:51.442Z,75.90
2023-01-18T19:18:18.195Z,56.90
2023-01-18T19:20:44.830Z,82.13
2023-01-18T19:23:11.882Z,62.08
2023-01-18T19:25:39.351Z,65.35
2023-01-18T19:28:06.312Z,74.05
2023-01-18T19:30:33.404Z,65.47
2023-01-18T19:33:00.598Z,63.60
2023-01-18T19:35:27.284Z,68.03
2023-01-18T19:37:53.912Z,71.50
2023-01-18T19:40:21.603Z,69.68
2023-01-18T19:42:59.563Z,58.90
2023-01-18T19:45:28.701Z,65.68
2023-01-18T19:47:57.347Z,54.53
2023-01-18T19:50:24.729Z,60.30
2023-01-18T19:55:18.606Z,49.85
2023-01-18T20:00:12.452Z,49.80
2023-01-18T20:02:42.498Z,59.67
2023-01-18T20:05:09.275Z,71.97
2023-01-18T20:07:39.100Z,44.53
2023-01-18T20:10:07.723Z,46.22
2023-01-18T20:12:34.605Z,61.40
2023-01-18T20:15:01.257Z,50.28
2023-01-18T20:17:27.873Z,55.13
2023-01-18T20:19:54.501Z,55.72
2023-01-18T20:22:21.656Z,47.42
2023-01-18T20:24:48.519Z,52.55
2023-01-18T20:27:16.849Z,59.28
2023-01-18T20:29:44.689Z,49.15
2023-01-18T20:32:17.035Z,60.30
2023-01-18T20:34:44.803Z,48.00
2023-01-18T20:37:12.402Z,45.20
2023-01-18T20:39:39.280Z,43.83
2023-01-18T20:42:06.000Z,52.30
2023-01-18T20:44:32.613Z,45.03
2023-01-18T20:46:59.382Z,44.88
2023-01-18T20:49:37.253Z,47.30
2023-01-18T20:52:05.965Z,55.15
2023-01-18T20:54:34.647Z,43.30
2023-01-18T20:57:01.402Z,39.67
2023-01-18T20:59:27.937Z,57.30
2023-01-18T21:01:54.610Z,43.20
2023-01-18T21:04:21.289Z,47.00
2023-01-18T21:06:49.808Z,39.95
2023-01-18T21:09:16.902Z,41.08
2023-01-18T21:11:43.989Z,44.80
2023-01-18T21:14:10.812Z,38.70
2023-01-18T21:16:37.623Z,44.20
2023-01-18T21:19:04.575Z,48.88
2023-01-18T21:21:31.950Z,51.42
2023-01-18T21:23:59.466Z,40.33
2023-01-18T21:28:53.353Z,31.95
2023-01-18T21:31:20.444Z,42.47
2023-01-18T21:33:47.206Z,41.50
2023-01-18T21:36:20.197Z,39.10
2023-01-18T21:38:46.970Z,40.97
2023-01-18T21:41:31.864Z,48.33
2023-01-18T21:44:16.989Z,44.15
2023-01-18T21:46:48.261Z,46.35
2023-01-18T21:49:51.891Z,42.17
2023-01-18T21:52:38.903Z,41.42
2023-01-18T21:55:05.775Z,46.38
2023-01-18T21:57:32.488Z,44.63
2023-01-18T21:59:59.120Z,30.95
2023-01-18T22:02:25.757Z,44.35
2023-01-18T22:04:58.984Z,41.70
2023-01-18T22:07:27.152Z,41.53
2023-01-18T22:10:03.983Z,50.90
2023-01-18T22:12:33.418Z,35.58
2023-01-18T22:15:02.096Z,45.55
2023-01-18T22:17:28.919Z,50.80
2023-01-18T22:19:55.632Z,42.58
2023-01-18T22:22:22.236Z,56.22
2023-01-18T22:24:48.783Z,47.60
2023-01-18T22:27:15.365Z,41.50
2023-01-18T22:29:42.183Z,52.90
2023-01-18T22:32:08.818Z,57.58
2023-01-18T22:34:35.372Z,39.97
2023-01-18T22:37:03.220Z,49.77
2023-01-18T22:39:29.886Z,54.67
2023-01-18T22:41:56.482Z,48.17
2023-01-18T22:44:23.157Z,44.70
2023-01-18T22:46:50.024Z,42.75
2023-01-18T22:49:16.688Z,42.53
2023-01-18T22:51:43.413Z,39.70
2023-01-18T22:54:10.284Z,36.38
2023-01-18T22:56:36.865Z,42.30
2023-01-18T22:59:03.399Z,33.27
2023-01-18T23:01:32.775Z,50.10
2023-01-18T23:04:01.933Z,55.10
2023-01-18T23:06:29.735Z,59.17
2023-01-18T23:08:56.466Z,41.08
2023-01-18T23:11:29.368Z,49.90
2023-01-18T23:14:16.583Z,41.63
2023-01-18T23:17:02.525Z,33.28
2023-01-18T23:19:30.739Z,33.83
2023-01-18T23:21:58.086Z,42.03
2023-01-18T23:24:25.277Z,38.60
2023-01-18T23:26:52.280Z,42.10
2023-01-18T23:29:19.976Z,46.25
2023-01-18T23:31:46.831Z,51.55
2023-01-18T23:34:13.517Z,45.42
2023-01-18T23:36:40.045Z,39.40
2023-01-18T23:39:24.911Z,46.10
2023-01-18T23:42:09.865Z,32.40
2023-01-18T23:44:54.917Z,54.92
2023-01-18T23:47:40.021Z,39.20
2023-01-18T23:50:25.665Z,50.80
2023-01-18T23:53:10.503Z,45.80
2023-01-18T23:55:37.034Z,44.75
2023-01-18T23:58:03.705Z,50.07
